AirNav   Jet Aviation Boston
 
 1526 users online  

CL35 Warner Springs Gliderport
Warner Springs, California, USA

GOING TO WARNER SPRINGS?


FAA INFORMATION EFFECTIVE 29 MARCH 2018

Location

FAA Identifier: CL35
Lat/Long: 33-17-04.2100N / 116-40-10.7650W
33-17.070167N / 116-40.179417W
33.2845028 / -116.6696569
(estimated)
Elevation: 2880 ft. / 878 m (estimated)
Variation: 13E (1985)
From city: 2 miles E of WARNER SPRINGS, CA
Time zone: UTC -7 (UTC -8 during Standard Time)
Zip code: 92086

Gliderport Operations

Gliderport use: Private use. Permission required prior to landing
Activation date: 10/1984
Control tower: no
ARTCC: LOS ANGELES CENTER
FSS: SAN DIEGO FLIGHT SERVICE STATION
Attendance: 0900-1700
Wind indicator: yes
Segmented circle: yes
Landing fee: yes

Gliderport Communications

UNICOM: 122.8
WX AWOS-3 at L08 (18 nm E): 126.575 (760-767-3308)
WX ASOS at RNM (19 nm SW): 132.025 (760-789-0736)

Nearby radio navigation aids

VOR radial/distance  VOR name  Freq  Var
JLIr319/9.6JULIAN VORTAC114.0015E
TRMr218/32.8THERMAL VORTAC116.2013E
PSPr186/37.1PALM SPRINGS VORTAC115.5013E
OCNr071/37.6OCEANSIDE VORTAC115.3015E
HDFr125/(39.2)HOMELAND VOR113.4014E

Gliderport Services

Runway Information

Runway 8/26

Dimensions: 3500 x 70 ft. / 1067 x 21 m
Surface: asphalt
RUNWAY 8  RUNWAY 26
Latitude: 33-17.060333N33-17.080000N
Longitude: 116-40.522667W116-39.836167W
Elevation: 2873.0 ft.2914.0 ft.
Traffic pattern: leftleft
Obstructions: none200 ft. hill, 5200 ft. from runway

Gliderport Ownership and Management from official FAA records

Ownership: Privately-owned
Owner: WARNER SPRINGS RANCH RESORT, LLC
31930 HWY 79
WARNER SPRINGS, CA 92086
Phone 760-782-4200
SKY SAILING 31930 HWY 79.
Manager: BRET WILLAT
SKY SAILING 31930 HWY 79
WARNER SPRINGS, CA 92086
Phone 760-782-0404
LEASEE.

Gliderport Operational Statistics

Aircraft based on the field: 80
Single engine airplanes: 10
Gliders airplanes: 70
    

Instrument Procedures

There are no published instrument procedures at CL35.

Some nearby airports with instrument procedures:

L08 - Borrego Valley Airport (18 nm E)
KRNM - Ramona Airport (19 nm SW)
F70 - French Valley Airport (29 nm NW)
L18 - Fallbrook Community Airpark (29 nm W)
KSEE - Gillespie Field Airport (31 nm SW)
 
Loc | Ops | Rwys | IFR | FBO | Links
Com | Nav | Svcs | Stats | Notes

AirNav Hotels Sweepstakes
 
Area around CL35 (Warner Springs Gliderport)
 
Road maps at: MapQuest Bing Google
 
Aerial photo
WARNING: Photo may not be current or correct
Aerial photo of CL35 (Warner Springs Gliderport)
Photo by Steve Lupinacci
Photo taken 27-May-2008

Do you have a better or more recent aerial photo of Warner Springs Gliderport that you would like to share? If so, please send us your photo.

 
Sectional chart

 
Airport distance calculator
Flying to Warner Springs Gliderport? Find the distance to fly.

From to CL35

Sunrise and sunset
Times for 25-Apr-2018
 Local
(UTC-7)
 Zulu
(UTC)
Morning civil twilight05:4012:40
Sunrise06:0613:06
Sunset19:2402:24
Evening civil twilight19:5002:50

Current date and time
Zulu (UTC)  25-Apr-2018 20:16:39
Local (UTC-7)  25-Apr-2018 13:16:39
 
METAR
KRNM 
20nm SW 
251953Z 30010KT 10SM CLR 24/10 A3007 RMK AO2 SLP172 T02440100
KF70 
29nm NW 
251955Z AUTO 23010KT 10SM CLR 24/05 A3006 RMK AO1
KL18 
29nm W 
251955Z AUTO 22007G15KT 10SM CLR 20/09 A3008 RMK AO2
KSEE 
32nm SW 
251947Z 23006G12KT 10SM SKC 22/10 A3007
KCRQ 
32nm W 
251953Z 25007KT 10SM CLR 17/11 A3008 RMK AO2 SLP184 T01670111
KTRM 
33nm NE 
251952Z AUTO 12009KT 10SM CLR 38/M01 A2985 RMK AO2 SLP112 T03831006
KPSP 
33nm N 
251953Z 31013G19KT 10SM CLR 38/M07 A2991 RMK AO2 SLP123 T03781067
KNFG 
33nm W 
251955Z VRB05KT 10SM FEW200 19/11 A3007 RMK AO2 SLP182 T01940106
KNKX 
34nm SW 
251955Z VRB04KT 10SM FEW250 22/10 A3007 RMK AO2 SLP179 T02170100 $
KOKB 
34nm W 
251952Z AUTO 27008KT 9SM CLR 18/11 A3008 RMK AO2 SLP185 T01830106
TAF
KCRQ 
32nm W 
251734Z 2518/2618 25008KT P6SM SKC FM260000 VRB03KT P6SM SCT010 FM260400 VRB02KT P6SM OVC009 FM261600 VRB04KT P6SM SCT013 SCT200
KTRM 
33nm NE 
251734Z 2518/2618 VRB05KT P6SM SKC FM252000 14009KT P6SM SKC FM260000 VRB05KT P6SM SKC FM260200 33010G18KT P6SM FEW200 FM261200 VRB05KT P6SM FEW200
KPSP 
33nm N 
251734Z 2518/2618 VRB05KT P6SM SKC FM252200 32012G22KT P6SM SKC FM260500 32009KT P6SM SKC FM260800 VRB03KT P6SM FEW200
KNFG 
33nm W 
2515/2615 VRB05KT 9999 SCT010 QNH3004INS BECMG 2517/2519 25009KT 9999 FEW015 QNH2998INS TEMPO 2521/2600 24010G18KT FM260300 VRB05KT 9999 SCT015 BKN020 QNH2999INS BECMG 2606/2608 VRB05KT 6000 BR OVC006 QNH2997INS TEMPO 2610/2615 1600 BR T20/2521Z T08/2613Z AMD 1552
KNKX 
34nm SW 
2515/2615 VRB05KT 6000 BR BKN007 QNH3004INS BECMG 2516/2518 28008KT 9999 SCT250 QNH2998INS FM260330 32005KT 9999 SCT250 QNH3000INS BECMG 2606/2608 4800 BR OVC011 QNH2998INS TEMPO 2609/26015 3200 BR OVC008 T20/2521Z T13/2613Z
NOTAMs
Click for the latest NOTAMs
NOTAMs are issued by the DoD/FAA and will open in a separate window not controlled by AirNav.

 

 
 

Would you like to see your business listed on this page?

 If your business provides an interesting product or service to pilots, flight crews, aircraft, or users of the Warner Springs Gliderport, you should consider listing it here.  To start the listing process, click on the button below
 
Add a business
 

Other Pages about Warner Springs Gliderport

www.agcsc.org/warner_springs_info.html
 
Update a link
 
Copyright © AirNav, LLC. All rights reserved. Privacy Policy  Contact